sensor_id;sensor_type;location;lat;lon;timestamp;P1;durP1;ratioP1;P2;durP2;ratioP2
10116;SDS011;5098;48.792;9.012;2023-02-04T00:01:43;9.02;;;5.47;;
10116;SDS011;5098;48.792;9.012;2023-02-04T00:04:13;5.90;;;5.30;;
10116;SDS011;5098;48.792;9.012;2023-02-04T00:06:39;5.07;;;4.57;;
10116;SDS011;5098;48.792;9.012;2023-02-04T00:09:05;5.03;;;4.60;;
10116;SDS011;5098;48.792;9.012;2023-02-04T00:11:31;4.28;;;3.88;;
10116;SDS011;5098;48.792;9.012;2023-02-04T00:13:57;5.30;;;4.43;;
10116;SDS011;5098;48.792;9.012;2023-02-04T00:16:23;4.88;;;4.38;;
10116;SDS011;5098;48.792;9.012;2023-02-04T00:18:50;3.15;;;2.83;;
10116;SDS011;5098;48.792;9.012;2023-02-04T00:21:16;4.32;;;3.97;;
10116;SDS011;5098;48.792;9.012;2023-02-04T00:23:42;4.70;;;4.25;;
10116;SDS011;5098;48.792;9.012;2023-02-04T00:26:08;4.28;;;3.90;;
10116;SDS011;5098;48.792;9.012;2023-02-04T00:28:34;4.90;;;4.50;;
10116;SDS011;5098;48.792;9.012;2023-02-04T00:31:00;4.93;;;4.30;;
10116;SDS011;5098;48.792;9.012;2023-02-04T00:33:26;28.85;;;20.67;;
10116;SDS011;5098;48.792;9.012;2023-02-04T00:35:53;21.42;;;17.50;;
10116;SDS011;5098;48.792;9.012;2023-02-04T00:38:19;14.43;;;10.48;;
10116;SDS011;5098;48.792;9.012;2023-02-04T00:40:46;23.73;;;17.98;;
10116;SDS011;5098;48.792;9.012;2023-02-04T00:43:12;25.70;;;17.50;;
10116;SDS011;5098;48.792;9.012;2023-02-04T00:45:39;6.05;;;4.68;;
10116;SDS011;5098;48.792;9.012;2023-02-04T00:48:05;4.78;;;4.38;;
10116;SDS011;5098;48.792;9.012;2023-02-04T00:50:31;5.00;;;4.60;;
10116;SDS011;5098;48.792;9.012;2023-02-04T00:52:58;5.05;;;4.55;;
10116;SDS011;5098;48.792;9.012;2023-02-04T00:55:25;5.25;;;4.72;;
10116;SDS011;5098;48.792;9.012;2023-02-04T00:57:52;4.88;;;4.30;;
10116;SDS011;5098;48.792;9.012;2023-02-04T01:00:18;5.05;;;4.55;;
10116;SDS011;5098;48.792;9.012;2023-02-04T01:02:44;4.05;;;3.60;;
10116;SDS011;5098;48.792;9.012;2023-02-04T01:05:10;5.90;;;4.13;;
10116;SDS011;5098;48.792;9.012;2023-02-04T01:07:36;5.22;;;3.92;;
10116;SDS011;5098;48.792;9.012;2023-02-04T01:10:02;3.30;;;3.00;;
10116;SDS011;5098;48.792;9.012;2023-02-04T01:12:28;2.65;;;2.28;;
10116;SDS011;5098;48.792;9.012;2023-02-04T01:14:55;3.88;;;3.40;;
10116;SDS011;5098;48.792;9.012;2023-02-04T01:17:21;3.42;;;2.92;;
10116;SDS011;5098;48.792;9.012;2023-02-04T01:19:47;2.50;;;2.30;;
10116;SDS011;5098;48.792;9.012;2023-02-04T01:22:13;1.83;;;1.63;;
10116;SDS011;5098;48.792;9.012;2023-02-04T01:24:39;2.65;;;1.70;;
10116;SDS011;5098;48.792;9.012;2023-02-04T01:27:05;4.57;;;2.05;;
10116;SDS011;5098;48.792;9.012;2023-02-04T01:29:31;2.55;;;2.30;;
10116;SDS011;5098;48.792;9.012;2023-02-04T01:31:57;2.22;;;2.03;;
10116;SDS011;5098;48.792;9.012;2023-02-04T01:34:23;2.97;;;1.90;;
10116;SDS011;5098;48.792;9.012;2023-02-04T01:36:50;2.85;;;1.90;;
10116;SDS011;5098;48.792;9.012;2023-02-04T01:39:16;3.80;;;2.28;;
10116;SDS011;5098;48.792;9.012;2023-02-04T01:41:42;2.05;;;1.60;;
10116;SDS011;5098;48.792;9.012;2023-02-04T01:44:08;1.73;;;1.63;;
10116;SDS011;5098;48.792;9.012;2023-02-04T01:46:34;1.98;;;1.75;;
10116;SDS011;5098;48.792;9.012;2023-02-04T01:49:01;2.47;;;1.20;;
10116;SDS011;5098;48.792;9.012;2023-02-04T01:51:27;4.10;;;1.20;;
10116;SDS011;5098;48.792;9.012;2023-02-04T01:53:56;3.00;;;1.77;;
10116;SDS011;5098;48.792;9.012;2023-02-04T01:56:23;2.50;;;1.30;;
10116;SDS011;5098;48.792;9.012;2023-02-04T01:58:53;4.95;;;1.50;;
10116;SDS011;5098;48.792;9.012;2023-02-04T02:01:36;5.70;;;1.63;;
10116;SDS011;5098;48.792;9.012;2023-02-04T02:04:03;3.65;;;1.48;;
10116;SDS011;5098;48.792;9.012;2023-02-04T02:06:29;3.20;;;1.50;;
10116;SDS011;5098;48.792;9.012;2023-02-04T02:08:55;6.43;;;1.88;;
10116;SDS011;5098;48.792;9.012;2023-02-04T02:11:22;4.30;;;1.42;;
10116;SDS011;5098;48.792;9.012;2023-02-04T02:13:49;8.20;;;2.00;;
10116;SDS011;5098;48.792;9.012;2023-02-04T02:16:15;4.72;;;2.10;;
10116;SDS011;5098;48.792;9.012;2023-02-04T02:18:41;4.15;;;1.80;;
10116;SDS011;5098;48.792;9.012;2023-02-04T02:21:08;4.18;;;1.40;;
10116;SDS011;5098;48.792;9.012;2023-02-04T02:23:49;3.78;;;1.27;;
10116;SDS011;5098;48.792;9.012;2023-02-04T02:26:16;2.47;;;1.60;;
10116;SDS011;5098;48.792;9.012;2023-02-04T02:28:43;1.70;;;1.40;;
10116;SDS011;5098;48.792;9.012;2023-02-04T02:31:09;4.10;;;1.55;;
10116;SDS011;5098;48.792;9.012;2023-02-04T02:33:36;3.05;;;1.25;;
10116;SDS011;5098;48.792;9.012;2023-02-04T02:36:02;4.63;;;1.40;;
10116;SDS011;5098;48.792;9.012;2023-02-04T02:38:28;4.95;;;1.60;;
10116;SDS011;5098;48.792;9.012;2023-02-04T02:40:54;4.30;;;1.65;;
10116;SDS011;5098;48.792;9.012;2023-02-04T02:43:21;3.28;;;2.20;;
10116;SDS011;5098;48.792;9.012;2023-02-04T02:45:47;6.47;;;2.17;;
10116;SDS011;5098;48.792;9.012;2023-02-04T02:48:14;4.22;;;1.73;;
10116;SDS011;5098;48.792;9.012;2023-02-04T02:50:40;6.72;;;2.10;;
10116;SDS011;5098;48.792;9.012;2023-02-04T02:53:11;4.57;;;1.50;;
10116;SDS011;5098;48.792;9.012;2023-02-04T02:55:38;5.97;;;1.80;;
10116;SDS011;5098;48.792;9.012;2023-02-04T02:58:04;4.03;;;2.30;;
10116;SDS011;5098;48.792;9.012;2023-02-04T03:00:31;8.90;;;2.22;;
10116;SDS011;5098;48.792;9.012;2023-02-04T03:03:04;5.35;;;2.42;;
10116;SDS011;5098;48.792;9.012;2023-02-04T03:05:32;5.80;;;1.85;;
10116;SDS011;5098;48.792;9.012;2023-02-04T03:08:00;3.95;;;1.98;;
10116;SDS011;5098;48.792;9.012;2023-02-04T03:10:26;4.75;;;2.60;;
10116;SDS011;5098;48.792;9.012;2023-02-04T03:12:52;3.42;;;2.15;;
10116;SDS011;5098;48.792;9.012;2023-02-04T03:15:18;2.85;;;1.70;;
10116;SDS011;5098;48.792;9.012;2023-02-04T03:17:45;3.45;;;2.40;;
10116;SDS011;5098;48.792;9.012;2023-02-04T03:20:12;9.00;;;3.03;;
10116;SDS011;5098;48.792;9.012;2023-02-04T03:22:38;10.23;;;3.20;;
10116;SDS011;5098;48.792;9.012;2023-02-04T03:25:04;6.70;;;2.60;;
10116;SDS011;5098;48.792;9.012;2023-02-04T03:27:30;13.52;;;2.80;;
10116;SDS011;5098;48.792;9.012;2023-02-04T03:29:56;6.13;;;2.45;;
10116;SDS011;5098;48.792;9.012;2023-02-04T03:32:23;7.82;;;2.55;;
10116;SDS011;5098;48.792;9.012;2023-02-04T03:34:49;7.00;;;2.63;;
10116;SDS011;5098;48.792;9.012;2023-02-04T03:37:15;11.65;;;2.75;;
10116;SDS011;5098;48.792;9.012;2023-02-04T03:39:41;5.65;;;2.58;;
10116;SDS011;5098;48.792;9.012;2023-02-04T03:42:07;5.97;;;2.63;;
10116;SDS011;5098;48.792;9.012;2023-02-04T03:44:33;4.65;;;2.25;;
10116;SDS011;5098;48.792;9.012;2023-02-04T03:46:59;5.80;;;2.70;;
10116;SDS011;5098;48.792;9.012;2023-02-04T03:49:25;5.68;;;3.40;;
10116;SDS011;5098;48.792;9.012;2023-02-04T03:51:52;7.45;;;2.85;;
10116;SDS011;5098;48.792;9.012;2023-02-04T03:54:18;6.07;;;2.80;;
10116;SDS011;5098;48.792;9.012;2023-02-04T03:56:44;8.55;;;3.35;;
10116;SDS011;5098;48.792;9.012;2023-02-04T03:59:10;5.50;;;3.15;;
10116;SDS011;5098;48.792;9.012;2023-02-04T04:01:36;7.63;;;3.15;;
10116;SDS011;5098;48.792;9.012;2023-02-04T04:04:02;5.32;;;3.05;;
10116;SDS011;5098;48.792;9.012;2023-02-04T04:06:28;7.97;;;3.17;;
10116;SDS011;5098;48.792;9.012;2023-02-04T04:08:55;9.82;;;3.17;;
10116;SDS011;5098;48.792;9.012;2023-02-04T04:11:22;6.25;;;2.75;;
10116;SDS011;5098;48.792;9.012;2023-02-04T04:13:48;7.70;;;2.55;;
10116;SDS011;5098;48.792;9.012;2023-02-04T04:16:14;5.60;;;3.10;;
10116;SDS011;5098;48.792;9.012;2023-02-04T04:18:40;8.93;;;3.38;;
10116;SDS011;5098;48.792;9.012;2023-02-04T04:21:06;7.32;;;3.42;;
10116;SDS011;5098;48.792;9.012;2023-02-04T04:23:32;9.85;;;3.70;;
10116;SDS011;5098;48.792;9.012;2023-02-04T04:25:58;10.52;;;3.53;;
10116;SDS011;5098;48.792;9.012;2023-02-04T04:28:25;5.35;;;2.95;;
10116;SDS011;5098;48.792;9.012;2023-02-04T04:30:51;3.67;;;3.20;;
10116;SDS011;5098;48.792;9.012;2023-02-04T04:33:17;6.68;;;2.63;;
10116;SDS011;5098;48.792;9.012;2023-02-04T04:35:43;6.45;;;3.38;;
10116;SDS011;5098;48.792;9.012;2023-02-04T04:38:09;8.20;;;3.78;;
10116;SDS011;5098;48.792;9.012;2023-02-04T04:40:35;6.32;;;3.40;;
10116;SDS011;5098;48.792;9.012;2023-02-04T04:43:01;10.95;;;3.65;;
10116;SDS011;5098;48.792;9.012;2023-02-04T04:45:27;9.57;;;3.80;;
10116;SDS011;5098;48.792;9.012;2023-02-04T04:47:53;8.68;;;3.58;;
10116;SDS011;5098;48.792;9.012;2023-02-04T04:50:20;4.90;;;3.67;;
10116;SDS011;5098;48.792;9.012;2023-02-04T04:52:46;7.78;;;4.22;;
10116;SDS011;5098;48.792;9.012;2023-02-04T04:55:12;7.63;;;4.18;;
10116;SDS011;5098;48.792;9.012;2023-02-04T04:57:38;9.30;;;3.75;;
10116;SDS011;5098;48.792;9.012;2023-02-04T05:00:05;8.45;;;3.80;;
10116;SDS011;5098;48.792;9.012;2023-02-04T05:02:31;9.30;;;4.60;;
10116;SDS011;5098;48.792;9.012;2023-02-04T05:04:57;4.00;;;3.60;;
10116;SDS011;5098;48.792;9.012;2023-02-04T05:07:24;9.45;;;3.75;;
10116;SDS011;5098;48.792;9.012;2023-02-04T05:09:50;4.65;;;3.35;;
10116;SDS011;5098;48.792;9.012;2023-02-04T05:12:16;7.78;;;3.85;;
10116;SDS011;5098;48.792;9.012;2023-02-04T05:14:42;5.20;;;3.72;;
10116;SDS011;5098;48.792;9.012;2023-02-04T05:17:08;4.15;;;3.20;;
10116;SDS011;5098;48.792;9.012;2023-02-04T05:19:34;6.10;;;3.50;;
10116;SDS011;5098;48.792;9.012;2023-02-04T05:22:00;5.43;;;3.00;;
10116;SDS011;5098;48.792;9.012;2023-02-04T05:24:26;4.63;;;3.70;;
10116;SDS011;5098;48.792;9.012;2023-02-04T05:26:52;5.97;;;3.65;;
10116;SDS011;5098;48.792;9.012;2023-02-04T05:29:18;5.13;;;3.65;;
10116;SDS011;5098;48.792;9.012;2023-02-04T05:31:44;5.82;;;4.00;;
10116;SDS011;5098;48.792;9.012;2023-02-04T05:34:10;5.15;;;3.83;;
10116;SDS011;5098;48.792;9.012;2023-02-04T05:36:36;4.05;;;3.45;;
10116;SDS011;5098;48.792;9.012;2023-02-04T05:39:02;7.13;;;4.18;;
10116;SDS011;5098;48.792;9.012;2023-02-04T05:41:28;5.78;;;4.00;;
10116;SDS011;5098;48.792;9.012;2023-02-04T05:43:55;9.52;;;4.35;;
10116;SDS011;5098;48.792;9.012;2023-02-04T05:46:21;4.95;;;3.78;;
10116;SDS011;5098;48.792;9.012;2023-02-04T05:48:47;9.95;;;4.63;;
10116;SDS011;5098;48.792;9.012;2023-02-04T05:51:13;11.02;;;3.70;;
10116;SDS011;5098;48.792;9.012;2023-02-04T05:53:39;9.30;;;4.68;;
10116;SDS011;5098;48.792;9.012;2023-02-04T05:56:05;6.40;;;4.00;;
10116;SDS011;5098;48.792;9.012;2023-02-04T05:58:31;6.88;;;4.10;;
10116;SDS011;5098;48.792;9.012;2023-02-04T06:00:58;12.40;;;4.78;;
10116;SDS011;5098;48.792;9.012;2023-02-04T06:03:25;8.57;;;4.70;;
10116;SDS011;5098;48.792;9.012;2023-02-04T06:05:51;9.50;;;5.13;;
10116;SDS011;5098;48.792;9.012;2023-02-04T06:08:17;9.07;;;5.13;;
10116;SDS011;5098;48.792;9.012;2023-02-04T06:10:43;15.90;;;5.60;;
10116;SDS011;5098;48.792;9.012;2023-02-04T06:13:09;10.48;;;5.75;;
10116;SDS011;5098;48.792;9.012;2023-02-04T06:15:35;10.50;;;5.40;;
10116;SDS011;5098;48.792;9.012;2023-02-04T06:18:02;15.32;;;7.00;;
10116;SDS011;5098;48.792;9.012;2023-02-04T06:20:28;21.73;;;6.85;;
10116;SDS011;5098;48.792;9.012;2023-02-04T06:22:54;13.10;;;6.38;;
10116;SDS011;5098;48.792;9.012;2023-02-04T06:25:20;12.57;;;6.05;;
10116;SDS011;5098;48.792;9.012;2023-02-04T06:27:46;16.50;;;6.72;;
10116;SDS011;5098;48.792;9.012;2023-02-04T06:30:13;16.73;;;7.85;;
10116;SDS011;5098;48.792;9.012;2023-02-04T06:32:39;13.82;;;7.18;;
10116;SDS011;5098;48.792;9.012;2023-02-04T06:35:05;16.35;;;6.20;;
10116;SDS011;5098;48.792;9.012;2023-02-04T06:37:32;18.88;;;7.80;;
10116;SDS011;5098;48.792;9.012;2023-02-04T06:39:58;14.13;;;7.35;;
10116;SDS011;5098;48.792;9.012;2023-02-04T06:42:24;12.95;;;6.28;;
10116;SDS011;5098;48.792;9.012;2023-02-04T06:44:51;17.10;;;6.85;;
10116;SDS011;5098;48.792;9.012;2023-02-04T06:47:18;16.35;;;6.80;;
10116;SDS011;5098;48.792;9.012;2023-02-04T06:49:44;13.13;;;7.18;;
10116;SDS011;5098;48.792;9.012;2023-02-04T06:52:10;14.70;;;6.30;;
10116;SDS011;5098;48.792;9.012;2023-02-04T06:54:36;16.77;;;6.38;;
10116;SDS011;5098;48.792;9.012;2023-02-04T06:57:03;16.13;;;6.82;;
10116;SDS011;5098;48.792;9.012;2023-02-04T06:59:33;18.38;;;7.70;;
10116;SDS011;5098;48.792;9.012;2023-02-04T07:01:59;18.23;;;7.00;;
10116;SDS011;5098;48.792;9.012;2023-02-04T07:04:25;13.35;;;6.97;;
10116;SDS011;5098;48.792;9.012;2023-02-04T07:06:51;19.25;;;7.38;;
10116;SDS011;5098;48.792;9.012;2023-02-04T07:09:17;14.35;;;7.15;;
10116;SDS011;5098;48.792;9.012;2023-02-04T07:11:43;13.45;;;7.20;;
10116;SDS011;5098;48.792;9.012;2023-02-04T07:14:09;19.77;;;8.43;;
10116;SDS011;5098;48.792;9.012;2023-02-04T07:16:35;13.25;;;8.27;;
10116;SDS011;5098;48.792;9.012;2023-02-04T07:19:02;19.58;;;8.07;;
10116;SDS011;5098;48.792;9.012;2023-02-04T07:21:28;15.90;;;6.97;;
10116;SDS011;5098;48.792;9.012;2023-02-04T07:23:54;14.50;;;7.60;;
10116;SDS011;5098;48.792;9.012;2023-02-04T07:26:20;13.88;;;7.80;;
10116;SDS011;5098;48.792;9.012;2023-02-04T07:28:46;15.43;;;7.80;;
10116;SDS011;5098;48.792;9.012;2023-02-04T07:31:12;13.32;;;6.75;;
10116;SDS011;5098;48.792;9.012;2023-02-04T07:33:38;20.42;;;8.50;;
10116;SDS011;5098;48.792;9.012;2023-02-04T07:36:05;18.83;;;8.02;;
10116;SDS011;5098;48.792;9.012;2023-02-04T07:38:31;14.82;;;7.57;;
10116;SDS011;5098;48.792;9.012;2023-02-04T07:40:57;15.85;;;8.25;;
10116;SDS011;5098;48.792;9.012;2023-02-04T07:43:23;21.00;;;9.32;;
10116;SDS011;5098;48.792;9.012;2023-02-04T07:45:49;16.15;;;7.57;;
10116;SDS011;5098;48.792;9.012;2023-02-04T07:48:15;17.63;;;7.65;;
10116;SDS011;5098;48.792;9.012;2023-02-04T07:50:41;12.90;;;8.23;;
10116;SDS011;5098;48.792;9.012;2023-02-04T07:53:07;12.70;;;7.22;;
10116;SDS011;5098;48.792;9.012;2023-02-04T07:55:33;15.50;;;8.38;;
10116;SDS011;5098;48.792;9.012;2023-02-04T07:57:59;16.35;;;8.07;;
10116;SDS011;5098;48.792;9.012;2023-02-04T08:00:26;23.75;;;13.13;;
10116;SDS011;5098;48.792;9.012;2023-02-04T08:02:52;18.73;;;10.18;;
10116;SDS011;5098;48.792;9.012;2023-02-04T08:05:18;23.27;;;11.93;;
10116;SDS011;5098;48.792;9.012;2023-02-04T08:07:44;16.55;;;8.23;;
10116;SDS011;5098;48.792;9.012;2023-02-04T08:10:10;14.25;;;8.00;;
10116;SDS011;5098;48.792;9.012;2023-02-04T08:12:36;14.25;;;7.88;;
10116;SDS011;5098;48.792;9.012;2023-02-04T08:15:02;16.92;;;8.07;;
10116;SDS011;5098;48.792;9.012;2023-02-04T08:17:29;17.75;;;7.18;;
10116;SDS011;5098;48.792;9.012;2023-02-04T08:19:55;20.73;;;8.15;;
10116;SDS011;5098;48.792;9.012;2023-02-04T08:22:21;16.77;;;8.38;;
10116;SDS011;5098;48.792;9.012;2023-02-04T08:24:47;18.50;;;9.30;;
10116;SDS011;5098;48.792;9.012;2023-02-04T08:27:13;17.40;;;8.82;;
10116;SDS011;5098;48.792;9.012;2023-02-04T08:29:39;13.40;;;7.80;;
10116;SDS011;5098;48.792;9.012;2023-02-04T08:32:06;20.10;;;7.75;;
10116;SDS011;5098;48.792;9.012;2023-02-04T08:34:34;15.77;;;7.25;;
10116;SDS011;5098;48.792;9.012;2023-02-04T08:37:00;15.20;;;8.35;;
10116;SDS011;5098;48.792;9.012;2023-02-04T08:39:26;11.57;;;6.13;;
10116;SDS011;5098;48.792;9.012;2023-02-04T08:41:52;14.88;;;7.35;;
10116;SDS011;5098;48.792;9.012;2023-02-04T08:44:18;14.07;;;6.90;;
10116;SDS011;5098;48.792;9.012;2023-02-04T08:46:44;14.50;;;7.35;;
10116;SDS011;5098;48.792;9.012;2023-02-04T08:49:10;13.60;;;6.53;;
10116;SDS011;5098;48.792;9.012;2023-02-04T08:51:36;10.13;;;5.88;;
10116;SDS011;5098;48.792;9.012;2023-02-04T08:54:02;10.48;;;5.72;;
10116;SDS011;5098;48.792;9.012;2023-02-04T08:56:28;11.10;;;6.53;;
10116;SDS011;5098;48.792;9.012;2023-02-04T08:58:55;11.65;;;5.75;;
10116;SDS011;5098;48.792;9.012;2023-02-04T09:01:21;9.90;;;4.95;;
10116;SDS011;5098;48.792;9.012;2023-02-04T09:03:47;12.70;;;7.80;;
10116;SDS011;5098;48.792;9.012;2023-02-04T09:06:13;10.63;;;5.17;;
10116;SDS011;5098;48.792;9.012;2023-02-04T09:08:39;8.33;;;5.60;;
10116;SDS011;5098;48.792;9.012;2023-02-04T09:11:05;13.70;;;5.13;;
10116;SDS011;5098;48.792;9.012;2023-02-04T09:13:34;8.20;;;4.37;;
10116;SDS011;5098;48.792;9.012;2023-02-04T09:16:00;9.50;;;5.43;;
10116;SDS011;5098;48.792;9.012;2023-02-04T09:18:26;9.23;;;3.93;;
10116;SDS011;5098;48.792;9.012;2023-02-04T09:20:54;10.70;;;4.50;;
10116;SDS011;5098;48.792;9.012;2023-02-04T09:23:20;7.07;;;3.63;;
10116;SDS011;5098;48.792;9.012;2023-02-04T09:25:48;9.03;;;3.13;;
10116;SDS011;5098;48.792;9.012;2023-02-04T09:28:14;11.07;;;3.90;;
10116;SDS011;5098;48.792;9.012;2023-02-04T09:30:41;13.10;;;3.80;;
10116;SDS011;5098;48.792;9.012;2023-02-04T09:33:08;10.70;;;3.60;;
10116;SDS011;5098;48.792;9.012;2023-02-04T09:35:34;10.57;;;4.17;;
10116;SDS011;5098;48.792;9.012;2023-02-04T09:38:00;10.53;;;4.40;;
10116;SDS011;5098;48.792;9.012;2023-02-04T09:40:27;6.67;;;3.30;;
10116;SDS011;5098;48.792;9.012;2023-02-04T09:42:53;9.50;;;3.60;;
10116;SDS011;5098;48.792;9.012;2023-02-04T09:45:24;5.70;;;3.30;;
10116;SDS011;5098;48.792;9.012;2023-02-04T09:47:52;9.77;;;3.50;;
10116;SDS011;5098;48.792;9.012;2023-02-04T09:50:22;9.03;;;3.90;;
10116;SDS011;5098;48.792;9.012;2023-02-04T09:52:49;5.83;;;3.07;;
10116;SDS011;5098;48.792;9.012;2023-02-04T09:55:18;8.90;;;3.67;;
10116;SDS011;5098;48.792;9.012;2023-02-04T09:57:44;12.43;;;3.53;;
10116;SDS011;5098;48.792;9.012;2023-02-04T10:00:20;8.07;;;3.27;;
10116;SDS011;5098;48.792;9.012;2023-02-04T10:02:46;8.73;;;3.47;;
10116;SDS011;5098;48.792;9.012;2023-02-04T10:05:20;9.00;;;3.30;;
10116;SDS011;5098;48.792;9.012;2023-02-04T10:07:49;9.20;;;3.40;;
10116;SDS011;5098;48.792;9.012;2023-02-04T10:10:16;10.17;;;4.43;;
10116;SDS011;5098;48.792;9.012;2023-02-04T10:12:43;8.23;;;3.20;;
10116;SDS011;5098;48.792;9.012;2023-02-04T10:15:16;12.83;;;8.47;;
10116;SDS011;5098;48.792;9.012;2023-02-04T10:17:46;8.30;;;3.20;;
10116;SDS011;5098;48.792;9.012;2023-02-04T10:20:14;12.40;;;4.45;;
10116;SDS011;5098;48.792;9.012;2023-02-04T10:22:40;14.10;;;4.90;;
10116;SDS011;5098;48.792;9.012;2023-02-04T10:25:27;10.50;;;3.40;;
10116;SDS011;5098;48.792;9.012;2023-02-04T10:27:54;9.82;;;3.17;;
10116;SDS011;5098;48.792;9.012;2023-02-04T10:30:21;7.77;;;2.90;;
10116;SDS011;5098;48.792;9.012;2023-02-04T10:32:47;8.37;;;3.30;;
10116;SDS011;5098;48.792;9.012;2023-02-04T10:35:14;10.10;;;3.58;;
10116;SDS011;5098;48.792;9.012;2023-02-04T10:37:41;4.00;;;2.60;;
10116;SDS011;5098;48.792;9.012;2023-02-04T10:40:29;7.13;;;2.80;;
10116;SDS011;5098;48.792;9.012;2023-02-04T10:42:56;12.97;;;3.83;;
10116;SDS011;5098;48.792;9.012;2023-02-04T10:45:26;5.83;;;2.80;;
10116;SDS011;5098;48.792;9.012;2023-02-04T10:47:53;10.33;;;3.90;;
10116;SDS011;5098;48.792;9.012;2023-02-04T10:50:20;10.80;;;4.20;;
10116;SDS011;5098;48.792;9.012;2023-02-04T10:52:51;12.83;;;3.57;;
10116;SDS011;5098;48.792;9.012;2023-02-04T10:55:19;12.27;;;4.00;;
10116;SDS011;5098;48.792;9.012;2023-02-04T10:57:47;15.90;;;4.45;;
10116;SDS011;5098;48.792;9.012;2023-02-04T11:00:15;8.90;;;4.10;;
10116;SDS011;5098;48.792;9.012;2023-02-04T11:05:20;9.73;;;3.13;;
10116;SDS011;5098;48.792;9.012;2023-02-04T11:07:47;11.33;;;2.90;;
10116;SDS011;5098;48.792;9.012;2023-02-04T11:10:18;11.30;;;3.10;;
10116;SDS011;5098;48.792;9.012;2023-02-04T11:18:09;15.70;;;4.22;;
10116;SDS011;5098;48.792;9.012;2023-02-04T11:20:35;8.18;;;2.40;;
10116;SDS011;5098;48.792;9.012;2023-02-04T11:23:14;9.60;;;2.55;;
10116;SDS011;5098;48.792;9.012;2023-02-04T11:25:40;13.93;;;3.25;;
10116;SDS011;5098;48.792;9.012;2023-02-04T11:30:59;11.23;;;3.35;;
10116;SDS011;5098;48.792;9.012;2023-02-04T11:33:32;14.80;;;4.03;;
10116;SDS011;5098;48.792;9.012;2023-02-04T11:36:03;10.65;;;3.47;;
10116;SDS011;5098;48.792;9.012;2023-02-04T11:38:29;9.30;;;3.05;;
10116;SDS011;5098;48.792;9.012;2023-02-04T11:40:56;6.55;;;2.30;;
10116;SDS011;5098;48.792;9.012;2023-02-04T11:43:22;13.40;;;2.90;;
10116;SDS011;5098;48.792;9.012;2023-02-04T11:45:48;6.20;;;2.40;;
10116;SDS011;5098;48.792;9.012;2023-02-04T11:48:25;6.68;;;3.00;;
10116;SDS011;5098;48.792;9.012;2023-02-04T11:50:57;8.70;;;2.75;;
10116;SDS011;5098;48.792;9.012;2023-02-04T11:53:27;12.43;;;3.35;;
10116;SDS011;5098;48.792;9.012;2023-02-04T11:55:53;12.88;;;3.22;;
10116;SDS011;5098;48.792;9.012;2023-02-04T11:58:20;12.95;;;2.75;;
10116;SDS011;5098;48.792;9.012;2023-02-04T12:00:50;10.10;;;3.20;;
10116;SDS011;5098;48.792;9.012;2023-02-04T12:03:26;8.27;;;2.22;;
10116;SDS011;5098;48.792;9.012;2023-02-04T12:05:54;13.20;;;2.65;;
10116;SDS011;5098;48.792;9.012;2023-02-04T12:10:57;12.60;;;4.30;;
10116;SDS011;5098;48.792;9.012;2023-02-04T12:13:25;7.67;;;3.00;;
10116;SDS011;5098;48.792;9.012;2023-02-04T12:15:57;8.50;;;2.27;;
10116;SDS011;5098;48.792;9.012;2023-02-04T12:18:23;6.70;;;2.60;;
10116;SDS011;5098;48.792;9.012;2023-02-04T12:20:51;8.43;;;2.70;;
10116;SDS011;5098;48.792;9.012;2023-02-04T12:23:18;12.57;;;2.97;;
10116;SDS011;5098;48.792;9.012;2023-02-04T12:25:44;9.27;;;3.10;;
10116;SDS011;5098;48.792;9.012;2023-02-04T12:28:10;7.80;;;2.33;;
10116;SDS011;5098;48.792;9.012;2023-02-04T12:30:36;10.97;;;3.20;;
10116;SDS011;5098;48.792;9.012;2023-02-04T12:33:02;8.33;;;2.33;;
10116;SDS011;5098;48.792;9.012;2023-02-04T12:35:28;12.97;;;2.80;;
10116;SDS011;5098;48.792;9.012;2023-02-04T12:37:54;11.13;;;2.50;;
10116;SDS011;5098;48.792;9.012;2023-02-04T12:40:20;6.63;;;2.00;;
10116;SDS011;5098;48.792;9.012;2023-02-04T12:42:46;5.93;;;2.20;;
10116;SDS011;5098;48.792;9.012;2023-02-04T12:45:13;4.60;;;2.10;;
10116;SDS011;5098;48.792;9.012;2023-02-04T12:47:40;4.20;;;2.45;;
10116;SDS011;5098;48.792;9.012;2023-02-04T12:50:06;4.93;;;2.23;;
10116;SDS011;5098;48.792;9.012;2023-02-04T12:52:32;6.33;;;2.13;;
10116;SDS011;5098;48.792;9.012;2023-02-04T12:54:58;4.57;;;2.23;;
10116;SDS011;5098;48.792;9.012;2023-02-04T12:57:25;8.97;;;2.50;;
10116;SDS011;5098;48.792;9.012;2023-02-04T12:59:51;7.03;;;2.50;;
10116;SDS011;5098;48.792;9.012;2023-02-04T13:02:17;5.00;;;2.03;;
10116;SDS011;5098;48.792;9.012;2023-02-04T13:04:43;6.17;;;2.90;;
10116;SDS011;5098;48.792;9.012;2023-02-04T13:07:09;6.90;;;2.20;;
10116;SDS011;5098;48.792;9.012;2023-02-04T13:09:35;6.47;;;1.83;;
10116;SDS011;5098;48.792;9.012;2023-02-04T13:12:02;6.10;;;3.20;;
10116;SDS011;5098;48.792;9.012;2023-02-04T13:14:28;6.77;;;3.10;;
10116;SDS011;5098;48.792;9.012;2023-02-04T13:16:56;5.50;;;2.40;;
10116;SDS011;5098;48.792;9.012;2023-02-04T13:19:22;12.63;;;2.33;;
10116;SDS011;5098;48.792;9.012;2023-02-04T13:21:48;3.80;;;1.60;;
10116;SDS011;5098;48.792;9.012;2023-02-04T13:24:14;6.20;;;2.90;;
10116;SDS011;5098;48.792;9.012;2023-02-04T13:26:41;9.50;;;3.00;;
10116;SDS011;5098;48.792;9.012;2023-02-04T13:29:07;11.33;;;3.03;;
10116;SDS011;5098;48.792;9.012;2023-02-04T13:31:33;8.10;;;2.90;;
10116;SDS011;5098;48.792;9.012;2023-02-04T13:33:59;5.90;;;2.27;;
10116;SDS011;5098;48.792;9.012;2023-02-04T13:36:25;13.03;;;2.77;;
10116;SDS011;5098;48.792;9.012;2023-02-04T13:38:54;6.50;;;2.43;;
10116;SDS011;5098;48.792;9.012;2023-02-04T13:41:20;10.30;;;2.77;;
10116;SDS011;5098;48.792;9.012;2023-02-04T13:43:46;7.37;;;2.53;;
10116;SDS011;5098;48.792;9.012;2023-02-04T13:46:13;8.30;;;2.93;;
10116;SDS011;5098;48.792;9.012;2023-02-04T13:48:39;8.57;;;3.20;;
10116;SDS011;5098;48.792;9.012;2023-02-04T13:51:05;10.37;;;2.73;;
10116;SDS011;5098;48.792;9.012;2023-02-04T13:53:31;11.67;;;2.83;;
10116;SDS011;5098;48.792;9.012;2023-02-04T13:55:57;8.23;;;3.33;;
10116;SDS011;5098;48.792;9.012;2023-02-04T13:58:23;7.23;;;2.87;;
10116;SDS011;5098;48.792;9.012;2023-02-04T14:00:49;8.53;;;3.10;;
10116;SDS011;5098;48.792;9.012;2023-02-04T14:03:15;8.13;;;2.30;;
10116;SDS011;5098;48.792;9.012;2023-02-04T14:05:41;11.17;;;2.67;;
10116;SDS011;5098;48.792;9.012;2023-02-04T14:08:07;9.10;;;2.70;;
10116;SDS011;5098;48.792;9.012;2023-02-04T14:10:33;4.70;;;2.13;;
10116;SDS011;5098;48.792;9.012;2023-02-04T14:13:00;9.43;;;3.15;;
10116;SDS011;5098;48.792;9.012;2023-02-04T14:15:26;11.85;;;3.60;;
10116;SDS011;5098;48.792;9.012;2023-02-04T14:17:52;13.18;;;3.00;;
10116;SDS011;5098;48.792;9.012;2023-02-04T14:20:18;14.10;;;3.35;;
10116;SDS011;5098;48.792;9.012;2023-02-04T14:22:44;13.40;;;3.50;;
10116;SDS011;5098;48.792;9.012;2023-02-04T14:25:10;16.85;;;4.03;;
10116;SDS011;5098;48.792;9.012;2023-02-04T14:27:36;14.60;;;2.92;;
10116;SDS011;5098;48.792;9.012;2023-02-04T14:30:06;6.30;;;2.65;;
10116;SDS011;5098;48.792;9.012;2023-02-04T14:32:32;10.73;;;3.40;;
10116;SDS011;5098;48.792;9.012;2023-02-04T14:34:58;9.27;;;3.17;;
10116;SDS011;5098;48.792;9.012;2023-02-04T14:37:24;10.15;;;3.13;;
10116;SDS011;5098;48.792;9.012;2023-02-04T14:39:52;10.77;;;2.90;;
10116;SDS011;5098;48.792;9.012;2023-02-04T14:42:18;11.68;;;3.17;;
10116;SDS011;5098;48.792;9.012;2023-02-04T14:44:44;12.40;;;3.40;;
10116;SDS011;5098;48.792;9.012;2023-02-04T14:47:10;9.30;;;2.85;;
10116;SDS011;5098;48.792;9.012;2023-02-04T14:49:36;10.90;;;2.80;;
10116;SDS011;5098;48.792;9.012;2023-02-04T14:52:03;14.98;;;3.70;;
10116;SDS011;5098;48.792;9.012;2023-02-04T14:54:29;10.55;;;2.97;;
10116;SDS011;5098;48.792;9.012;2023-02-04T14:56:55;10.15;;;3.35;;
10116;SDS011;5098;48.792;9.012;2023-02-04T14:59:21;6.68;;;2.42;;
10116;SDS011;5098;48.792;9.012;2023-02-04T15:01:47;14.00;;;2.90;;
10116;SDS011;5098;48.792;9.012;2023-02-04T15:04:13;9.90;;;2.85;;
10116;SDS011;5098;48.792;9.012;2023-02-04T15:06:39;8.23;;;2.90;;